Archival Weather

Habib Bourguiba Intl

Habib Bourguiba Intl, Tunisia (DTMB)

Report from: Sunday, October 1, 2023 5:30 AM CET
Current time: Saturday, March 2, 2024 11:05 AM CET

Current weather – Weather history – Daily summaries
Weather forecast

Temperature24.0°C (75.2°F)
Dew point19.0°C (66.2°F)
Winds 7 kts (3.6 m/s, 8.1 mph) Vrb
Winds variableWinds variable from North-Northwest (330°) to North-Northeast (30°)
Visibility6.2 mi. (10 km)
Clouds Few clouds 2,600 ft. (792 m)
Altimeter30.18 in.Hg (1022 mB)
Relative humidity74 %
Density altitude1,049 ft. (320 m)
Flight conditions Visual Meteorological Conditions
Raw dataDTMB 010430Z 36007KT 330V030 9999 FEW026 24/19 Q1022
An error has occurred. This application may no longer respond until reloaded. Reload 🗙